createdAt,value
2018-09-18T00:01:02.705Z,79.70
2018-09-18T00:03:29.936Z,78.70
2018-09-18T00:05:57.159Z,78.00
2018-09-18T00:08:24.290Z,78.10
2018-09-18T00:10:51.402Z,78.70
2018-09-18T00:13:18.538Z,79.40
2018-09-18T00:15:45.727Z,79.80
2018-09-18T00:18:12.862Z,81.00
2018-09-18T00:20:40.043Z,81.70
2018-09-18T00:23:07.163Z,82.30
2018-09-18T00:25:35.035Z,82.20
2018-09-18T00:28:02.223Z,82.50
2018-09-18T00:30:29.406Z,82.90
2018-09-18T00:32:56.563Z,83.40
2018-09-18T00:35:23.694Z,83.50
2018-09-18T00:37:50.807Z,84.40
2018-09-18T00:40:17.974Z,84.50
2018-09-18T00:42:45.094Z,84.80
2018-09-18T00:45:12.219Z,84.90
2018-09-18T00:47:39.331Z,86.20
2018-09-18T00:50:06.494Z,85.40
2018-09-18T00:52:33.687Z,85.50
2018-09-18T00:55:00.906Z,85.60
2018-09-18T00:57:28.100Z,85.20
2018-09-18T00:59:55.222Z,85.80
2018-09-18T01:02:22.367Z,86.20
2018-09-18T01:04:49.571Z,86.40
2018-09-18T01:07:16.709Z,86.80
2018-09-18T01:09:43.852Z,87.50
2018-09-18T01:12:10.967Z,87.70
2018-09-18T01:14:38.295Z,87.20
2018-09-18T01:17:05.744Z,85.90
2018-09-18T01:19:32.879Z,86.10
2018-09-18T01:22:00.044Z,86.90
2018-09-18T01:24:27.246Z,86.90
2018-09-18T01:26:54.354Z,87.30
2018-09-18T01:29:21.503Z,88.00
2018-09-18T01:31:48.628Z,88.20
2018-09-18T01:34:15.756Z,88.60
2018-09-18T01:36:42.887Z,89.40
2018-09-18T01:39:10.405Z,89.60
2018-09-18T01:41:37.770Z,90.00
2018-09-18T01:44:05.031Z,88.70
2018-09-18T01:46:32.194Z,89.20
2018-09-18T01:48:59.339Z,90.00
2018-09-18T01:51:26.501Z,90.30
2018-09-18T01:53:53.610Z,90.60
2018-09-18T01:56:20.744Z,90.90
2018-09-18T01:58:47.855Z,90.80
2018-09-18T02:01:14.958Z,90.60
2018-09-18T02:03:42.104Z,90.10
2018-09-18T02:06:09.272Z,90.10
2018-09-18T02:08:36.439Z,90.10
2018-09-18T02:11:03.610Z,90.10
2018-09-18T02:13:30.752Z,90.10
2018-09-18T02:15:57.890Z,90.50
2018-09-18T02:18:25.164Z,91.00
2018-09-18T02:20:52.490Z,91.30
2018-09-18T02:23:19.605Z,91.60
2018-09-18T02:25:46.734Z,91.90
2018-09-18T02:28:13.843Z,91.90
2018-09-18T02:30:40.950Z,92.60
2018-09-18T02:33:08.055Z,93.20
2018-09-18T02:35:35.163Z,93.90
2018-09-18T02:38:02.324Z,94.60
2018-09-18T02:40:29.475Z,94.80
2018-09-18T02:42:56.644Z,94.70
2018-09-18T02:45:23.796Z,95.00
2018-09-18T02:47:50.893Z,95.70
2018-09-18T02:50:17.990Z,96.00
2018-09-18T02:52:45.100Z,96.60
2018-09-18T02:55:12.207Z,96.80
2018-09-18T02:57:39.316Z,96.90
2018-09-18T03:00:06.463Z,97.20
2018-09-18T03:02:33.606Z,96.80
2018-09-18T03:05:00.807Z,96.20
2018-09-18T03:07:27.979Z,96.00
2018-09-18T03:09:55.083Z,96.10
2018-09-18T03:12:22.206Z,96.10
2018-09-18T03:14:49.339Z,96.90
2018-09-18T03:17:16.470Z,97.80
2018-09-18T03:19:43.670Z,98.50
2018-09-18T03:22:10.829Z,98.90
2018-09-18T03:24:37.923Z,99.40
2018-09-18T03:27:05.151Z,99.90
2018-09-18T03:29:32.309Z,99.90
2018-09-18T03:31:59.461Z,99.90
2018-09-18T03:34:26.605Z,99.90
2018-09-18T03:36:53.713Z,99.90
2018-09-18T03:39:20.802Z,99.90
2018-09-18T03:41:47.914Z,99.90
2018-09-18T03:44:15.063Z,99.90
2018-09-18T03:46:42.221Z,99.90
2018-09-18T03:49:09.315Z,99.90
2018-09-18T03:51:36.475Z,99.90
2018-09-18T03:54:03.623Z,99.90
2018-09-18T03:56:30.795Z,99.90
2018-09-18T03:58:58.023Z,99.90
2018-09-18T04:01:25.126Z,99.90
2018-09-18T04:03:52.239Z,99.90
2018-09-18T04:06:19.349Z,99.90
2018-09-18T04:08:46.467Z,99.90
2018-09-18T04:11:13.586Z,99.90
2018-09-18T04:13:40.682Z,99.90
2018-09-18T04:16:07.781Z,99.90
2018-09-18T04:18:34.884Z,99.90
2018-09-18T04:21:02.041Z,99.90
2018-09-18T04:23:29.246Z,99.90
2018-09-18T04:25:56.364Z,99.90
2018-09-18T04:28:23.477Z,99.90
2018-09-18T04:30:50.570Z,99.90
2018-09-18T04:33:17.691Z,99.90
2018-09-18T04:35:44.807Z,99.90
2018-09-18T04:38:11.990Z,99.90
2018-09-18T04:40:39.097Z,99.90
2018-09-18T04:43:06.295Z,99.90
2018-09-18T04:45:33.432Z,99.90
2018-09-18T04:48:00.606Z,99.90
2018-09-18T04:50:27.959Z,99.90
2018-09-18T04:52:55.063Z,99.90
2018-09-18T04:55:22.164Z,99.90
2018-09-18T04:57:49.505Z,99.90
2018-09-18T05:00:16.671Z,99.90
2018-09-18T05:02:43.779Z,99.90
2018-09-18T05:05:10.871Z,99.90
2018-09-18T05:07:37.978Z,99.90
2018-09-18T05:10:05.171Z,99.90
2018-09-18T05:12:32.474Z,99.90
2018-09-18T05:14:59.615Z,99.90
2018-09-18T05:17:26.742Z,99.90
2018-09-18T05:19:53.839Z,99.90
2018-09-18T05:22:21.135Z,99.90
2018-09-18T05:24:48.261Z,99.90
2018-09-18T05:27:15.388Z,99.90
2018-09-18T05:29:42.505Z,99.90
2018-09-18T05:32:09.623Z,99.90
2018-09-18T05:34:36.725Z,99.90
2018-09-18T05:37:04.071Z,99.90
2018-09-18T05:39:31.206Z,99.90
2018-09-18T05:41:58.393Z,99.90
2018-09-18T05:44:25.514Z,99.90
2018-09-18T05:46:52.693Z,99.70
2018-09-18T05:49:19.890Z,96.90
2018-09-18T05:51:47.243Z,93.40
2018-09-18T05:54:14.353Z,90.40
2018-09-18T05:56:41.644Z,90.00
2018-09-18T05:59:08.767Z,90.30
2018-09-18T06:01:35.904Z,91.40
2018-09-18T06:04:03.104Z,92.10
2018-09-18T06:06:30.267Z,91.80
2018-09-18T06:08:57.424Z,92.60
2018-09-18T06:11:24.548Z,91.40
2018-09-18T06:13:51.672Z,89.40
2018-09-18T06:16:18.771Z,87.80
2018-09-18T06:18:45.948Z,87.70
2018-09-18T06:21:13.000Z,87.00
2018-09-18T06:23:40.139Z,86.80
2018-09-18T06:26:07.346Z,86.60
2018-09-18T06:28:34.481Z,83.10
2018-09-18T06:31:01.621Z,74.20
2018-09-18T06:33:28.839Z,60.20
2018-09-18T06:35:55.998Z,52.80
2018-09-18T06:38:23.082Z,49.10
2018-09-18T06:40:50.197Z,47.70
2018-09-18T06:43:17.826Z,44.10
2018-09-18T06:45:44.942Z,41.80
2018-09-18T06:48:12.360Z,40.30
2018-09-18T06:50:39.491Z,40.80
2018-09-18T06:53:06.891Z,39.10
2018-09-18T06:55:34.030Z,38.10
2018-09-18T06:58:01.188Z,36.80
2018-09-18T07:00:28.335Z,35.60
2018-09-18T07:02:55.452Z,35.10
2018-09-18T07:05:22.567Z,34.20
2018-09-18T07:07:49.668Z,33.80
2018-09-18T07:10:16.791Z,33.40
2018-09-18T07:12:43.946Z,32.70
2018-09-18T07:15:11.057Z,32.30
2018-09-18T07:17:38.191Z,32.50
2018-09-18T07:20:05.557Z,31.50
2018-09-18T07:22:32.706Z,30.90
2018-09-18T07:24:59.890Z,30.60
2018-09-18T07:27:27.011Z,30.20
2018-09-18T07:29:54.120Z,30.00
2018-09-18T07:32:21.252Z,29.80
2018-09-18T07:34:48.361Z,29.50
2018-09-18T07:37:15.488Z,29.40
2018-09-18T07:39:42.630Z,29.70
2018-09-18T07:42:09.730Z,29.20
2018-09-18T07:44:36.836Z,29.10
2018-09-18T07:47:04.010Z,28.80
2018-09-18T07:49:31.133Z,28.70
2018-09-18T07:51:58.333Z,28.60
2018-09-18T07:54:25.446Z,28.30
2018-09-18T07:56:52.557Z,28.20
2018-09-18T07:59:19.733Z,28.30
2018-09-18T08:01:46.870Z,27.80
2018-09-18T08:04:13.990Z,28.20
2018-09-18T08:06:41.161Z,28.20
2018-09-18T08:09:09.374Z,28.00
2018-09-18T08:11:36.519Z,28.20
2018-09-18T08:14:03.716Z,28.20
2018-09-18T08:16:30.857Z,28.10
2018-09-18T08:18:58.137Z,27.80
2018-09-18T08:21:25.177Z,27.80
2018-09-18T08:23:52.363Z,28.10
2018-09-18T08:26:19.499Z,28.30
2018-09-18T08:28:46.619Z,28.70
2018-09-18T08:31:13.743Z,28.80
2018-09-18T08:33:40.863Z,29.90
2018-09-18T08:36:07.987Z,29.60
2018-09-18T08:38:35.116Z,30.30
2018-09-18T08:41:02.251Z,30.40
2018-09-18T08:43:29.418Z,30.70
2018-09-18T08:45:56.619Z,31.00
2018-09-18T08:48:27.928Z,32.40
2018-09-18T08:50:55.052Z,32.80
2018-09-18T08:53:22.212Z,33.70
2018-09-18T08:55:49.354Z,34.80
2018-09-18T08:58:16.447Z,36.80
2018-09-18T09:00:43.616Z,37.90
2018-09-18T09:03:10.823Z,39.00
2018-09-18T09:05:37.834Z,40.30
2018-09-18T09:08:05.064Z,41.20
2018-09-18T09:10:32.122Z,42.00
2018-09-18T09:12:59.327Z,43.00
2018-09-18T09:15:26.410Z,44.30
2018-09-18T09:17:53.664Z,45.10
2018-09-18T09:20:20.750Z,45.50
2018-09-18T09:22:47.963Z,46.00
2018-09-18T09:25:15.025Z,46.20
2018-09-18T09:27:42.174Z,45.80
2018-09-18T09:30:09.402Z,47.10
2018-09-18T09:32:36.420Z,47.20
2018-09-18T09:35:03.600Z,47.70
2018-09-18T09:37:30.791Z,47.90
2018-09-18T09:39:57.938Z,48.30
2018-09-18T09:42:25.074Z,48.40
2018-09-18T09:44:52.219Z,48.40
2018-09-18T09:47:19.284Z,48.50
2018-09-18T09:49:46.434Z,49.10
2018-09-18T09:52:13.553Z,50.00
2018-09-18T09:54:40.647Z,50.30
2018-09-18T09:57:07.813Z,50.40
2018-09-18T09:59:34.975Z,50.10
2018-09-18T10:02:07.848Z,49.60
2018-09-18T10:04:34.960Z,50.20
2018-09-18T10:07:02.109Z,50.10
2018-09-18T10:09:29.285Z,50.00
2018-09-18T10:11:56.434Z,49.90
2018-09-18T10:14:23.537Z,50.20
2018-09-18T10:16:50.634Z,50.30
2018-09-18T10:19:17.768Z,50.30
2018-09-18T10:21:44.887Z,50.20
2018-09-18T10:24:12.007Z,50.60
2018-09-18T10:26:39.764Z,50.40
2018-09-18T10:29:06.871Z,50.40
2018-09-18T10:31:34.049Z,51.30
2018-09-18T10:34:01.214Z,51.30
2018-09-18T10:36:28.374Z,51.20
2018-09-18T10:38:55.522Z,51.20
2018-09-18T10:41:22.757Z,51.20
2018-09-18T10:43:49.846Z,51.70
2018-09-18T10:46:16.977Z,51.20
2018-09-18T10:48:49.766Z,51.00
2018-09-18T10:51:16.850Z,50.80
2018-09-18T10:53:43.973Z,51.90
2018-09-18T10:56:11.343Z,51.80
2018-09-18T10:58:38.502Z,51.90
2018-09-18T11:01:06.060Z,51.90
2018-09-18T11:03:33.521Z,51.90
2018-09-18T11:06:00.618Z,51.50
2018-09-18T11:08:27.947Z,51.70
2018-09-18T11:10:54.996Z,51.70
2018-09-18T11:13:22.199Z,51.80
2018-09-18T11:15:49.302Z,51.60
2018-09-18T11:18:16.415Z,51.90
2018-09-18T11:20:43.539Z,51.50
2018-09-18T11:23:10.898Z,52.30
2018-09-18T11:25:38.116Z,51.90
2018-09-18T11:28:05.143Z,51.70
2018-09-18T11:30:32.248Z,52.20
2018-09-18T11:32:59.502Z,52.10
2018-09-18T11:35:26.569Z,52.00
2018-09-18T11:37:53.723Z,52.10
2018-09-18T11:40:20.851Z,52.20
2018-09-18T11:42:47.986Z,52.00
2018-09-18T11:45:15.088Z,51.90
2018-09-18T11:47:42.206Z,51.90
2018-09-18T11:50:09.398Z,52.00
2018-09-18T11:52:36.519Z,52.20
2018-09-18T11:55:03.656Z,52.00
2018-09-18T11:57:30.777Z,51.90
2018-09-18T11:59:57.937Z,51.60
2018-09-18T12:02:25.090Z,51.70
2018-09-18T12:04:52.388Z,51.70
2018-09-18T12:07:19.524Z,52.00
2018-09-18T12:09:46.674Z,52.30
2018-09-18T12:12:13.796Z,52.30
2018-09-18T12:14:40.939Z,52.10
2018-09-18T12:17:08.086Z,52.00
2018-09-18T12:19:35.175Z,52.10
2018-09-18T12:22:02.375Z,51.80
2018-09-18T12:24:29.559Z,51.50
2018-09-18T12:26:56.739Z,51.00
2018-09-18T12:29:23.882Z,51.50
2018-09-18T12:31:51.011Z,51.50
2018-09-18T12:34:18.131Z,51.50
2018-09-18T12:36:45.270Z,51.50
2018-09-18T12:39:12.377Z,51.50
2018-09-18T12:41:40.164Z,51.70
2018-09-18T12:44:07.401Z,51.10
2018-09-18T12:46:34.511Z,51.10
2018-09-18T12:49:01.660Z,51.40
2018-09-18T12:51:28.746Z,51.40
2018-09-18T12:53:55.928Z,51.70
2018-09-18T12:56:23.028Z,51.80
2018-09-18T12:58:50.199Z,51.10
2018-09-18T13:01:17.338Z,50.80
2018-09-18T13:03:44.470Z,50.60
2018-09-18T13:06:11.720Z,50.80
2018-09-18T13:08:38.727Z,50.80
2018-09-18T13:11:05.871Z,50.90
2018-09-18T13:13:33.015Z,50.80
2018-09-18T13:16:00.207Z,51.00
2018-09-18T13:18:27.422Z,50.50
2018-09-18T13:20:54.562Z,50.40
2018-09-18T13:23:21.679Z,50.30
2018-09-18T13:25:48.815Z,50.40
2018-09-18T13:28:15.949Z,50.40
2018-09-18T13:30:43.075Z,50.40
2018-09-18T13:33:10.189Z,50.10
2018-09-18T13:35:37.312Z,49.80
2018-09-18T13:38:04.494Z,50.20
2018-09-18T13:40:31.670Z,49.90
2018-09-18T13:42:58.846Z,49.70
2018-09-18T13:45:26.006Z,49.60
2018-09-18T13:47:53.106Z,49.70
2018-09-18T13:50:20.313Z,49.30
2018-09-18T13:52:47.363Z,49.30
2018-09-18T13:55:14.494Z,49.40
2018-09-18T13:57:41.713Z,49.20
2018-09-18T14:00:08.840Z,48.70
2018-09-18T14:02:35.978Z,48.90
2018-09-18T14:05:03.124Z,49.10
2018-09-18T14:07:30.294Z,49.30
2018-09-18T14:09:57.495Z,49.70
2018-09-18T14:12:24.673Z,49.40
2018-09-18T14:14:52.067Z,49.10
2018-09-18T14:17:19.084Z,49.20
2018-09-18T14:19:46.427Z,49.10
2018-09-18T14:22:13.536Z,49.00
2018-09-18T14:24:40.673Z,49.40
2018-09-18T14:27:07.808Z,49.10
2018-09-18T14:29:34.947Z,49.00
2018-09-18T14:32:02.095Z,49.20
2018-09-18T14:34:29.246Z,49.00
2018-09-18T14:36:56.416Z,49.00
2018-09-18T14:39:23.571Z,48.90
2018-09-18T14:41:50.703Z,49.00
2018-09-18T14:44:17.824Z,49.30
2018-09-18T14:46:44.933Z,49.40
2018-09-18T14:49:12.058Z,49.50
2018-09-18T14:51:39.202Z,49.30
2018-09-18T14:54:06.568Z,49.40
2018-09-18T14:56:33.687Z,49.50
2018-09-18T14:59:00.857Z,49.70
2018-09-18T15:01:27.978Z,49.30
2018-09-18T15:03:55.729Z,49.10
2018-09-18T15:06:22.864Z,49.10
2018-09-18T15:08:49.981Z,49.00
2018-09-18T15:11:17.130Z,49.00
2018-09-18T15:13:44.241Z,49.00
2018-09-18T15:16:11.368Z,49.00
2018-09-18T15:18:38.508Z,49.10
2018-09-18T15:21:05.638Z,48.90
2018-09-18T15:23:32.767Z,49.10
2018-09-18T15:25:59.926Z,49.10
2018-09-18T15:28:27.072Z,49.00
2018-09-18T15:30:54.229Z,48.50
2018-09-18T15:33:21.355Z,49.50
2018-09-18T15:35:48.508Z,49.60
2018-09-18T15:38:15.638Z,49.70
2018-09-18T15:40:42.793Z,49.70
2018-09-18T15:43:10.025Z,49.90
2018-09-18T15:45:37.114Z,49.60
2018-09-18T15:48:04.207Z,49.90
2018-09-18T15:50:31.347Z,50.00
2018-09-18T15:52:58.529Z,50.60
2018-09-18T15:55:25.813Z,50.00
2018-09-18T15:57:52.933Z,50.00
2018-09-18T16:00:19.927Z,50.50
2018-09-18T16:02:47.115Z,50.30
2018-09-18T16:05:14.230Z,50.40
2018-09-18T16:07:41.451Z,50.40
2018-09-18T16:10:08.552Z,51.30
2018-09-18T16:12:35.660Z,50.60
2018-09-18T16:15:02.912Z,50.90
2018-09-18T16:17:30.165Z,50.80
2018-09-18T16:19:57.270Z,50.80
2018-09-18T16:22:24.521Z,51.00
2018-09-18T16:24:51.878Z,51.10
2018-09-18T16:27:18.931Z,51.30
2018-09-18T16:29:46.066Z,51.60
2018-09-18T16:32:13.167Z,51.80
2018-09-18T16:34:40.326Z,52.00
2018-09-18T16:37:07.781Z,51.80
2018-09-18T16:39:34.915Z,51.70
2018-09-18T16:42:02.043Z,51.60
2018-09-18T16:44:29.208Z,51.80
2018-09-18T16:46:56.461Z,51.90
2018-09-18T16:49:23.510Z,52.10
2018-09-18T16:51:50.676Z,52.00
2018-09-18T16:54:17.844Z,52.60
2018-09-18T16:56:44.886Z,52.90
2018-09-18T16:59:12.012Z,53.50
2018-09-18T17:01:39.167Z,53.70
2018-09-18T17:04:06.282Z,54.30
2018-09-18T17:06:33.443Z,54.50
2018-09-18T17:09:00.535Z,54.60
2018-09-18T17:11:27.723Z,54.70
2018-09-18T17:13:54.901Z,55.50
2018-09-18T17:16:22.024Z,55.80
2018-09-18T17:18:49.097Z,56.20
2018-09-18T17:21:16.232Z,56.40
2018-09-18T17:23:43.365Z,57.00
2018-09-18T17:26:10.512Z,57.40
2018-09-18T17:28:37.807Z,58.30
2018-09-18T17:31:05.394Z,58.60
2018-09-18T17:33:32.505Z,58.90
2018-09-18T17:35:59.715Z,59.60
2018-09-18T17:38:27.121Z,60.30
2018-09-18T17:40:55.155Z,60.40
2018-09-18T17:43:22.579Z,61.00
2018-09-18T17:45:49.720Z,61.50
2018-09-18T17:48:16.815Z,61.80
2018-09-18T17:50:44.062Z,62.30
2018-09-18T17:53:11.192Z,62.60
2018-09-18T17:55:38.447Z,63.40
2018-09-18T17:58:05.580Z,64.50
2018-09-18T18:00:32.772Z,65.20
2018-09-18T18:02:59.967Z,66.20
2018-09-18T18:05:27.186Z,67.00
2018-09-18T18:07:54.263Z,68.00
2018-09-18T18:10:21.368Z,68.80
2018-09-18T18:12:48.538Z,69.70
2018-09-18T18:15:15.652Z,70.90
2018-09-18T18:17:42.916Z,70.80
2018-09-18T18:20:10.018Z,71.20
2018-09-18T18:22:37.106Z,70.90
2018-09-18T18:25:04.247Z,71.10
2018-09-18T18:27:31.410Z,70.90
2018-09-18T18:29:58.598Z,71.40
2018-09-18T18:32:25.818Z,72.70
2018-09-18T18:34:52.984Z,73.20
2018-09-18T18:37:20.125Z,73.20
2018-09-18T18:39:47.251Z,73.00
2018-09-18T18:42:14.364Z,72.50
2018-09-18T18:44:41.509Z,72.60
2018-09-18T18:47:08.706Z,72.30
2018-09-18T18:49:37.197Z,71.40
2018-09-18T18:52:05.083Z,71.30
2018-09-18T18:54:32.263Z,70.80
2018-09-18T18:56:59.505Z,70.10
2018-09-18T18:59:26.587Z,69.80
2018-09-18T19:01:53.697Z,69.70
2018-09-18T19:04:20.856Z,70.00
2018-09-18T19:06:48.039Z,70.20
2018-09-18T19:09:15.127Z,69.50
2018-09-18T19:11:42.253Z,69.30
2018-09-18T19:14:09.366Z,69.50
2018-09-18T19:16:36.476Z,69.80
2018-09-18T19:19:03.608Z,69.90
2018-09-18T19:21:30.710Z,70.20
2018-09-18T19:23:57.838Z,71.30
2018-09-18T19:26:25.258Z,71.70
2018-09-18T19:28:52.374Z,72.90
2018-09-18T19:31:19.628Z,72.50
2018-09-18T19:33:46.738Z,73.50
2018-09-18T19:36:13.846Z,73.30
2018-09-18T19:38:40.967Z,74.50
2018-09-18T19:41:08.075Z,76.20
2018-09-18T19:43:35.188Z,77.40
2018-09-18T19:46:02.360Z,78.10
2018-09-18T19:48:29.551Z,79.10
2018-09-18T19:50:56.734Z,80.40
2018-09-18T19:53:24.081Z,81.50
2018-09-18T19:55:51.187Z,82.30
2018-09-18T19:58:18.357Z,84.00
2018-09-18T20:00:45.492Z,84.50
2018-09-18T20:03:12.660Z,84.10
2018-09-18T20:05:39.735Z,84.80
2018-09-18T20:08:06.852Z,85.90
2018-09-18T20:10:33.979Z,87.80
2018-09-18T20:13:01.154Z,89.60
2018-09-18T20:15:28.308Z,90.80
2018-09-18T20:17:55.459Z,91.30
2018-09-18T20:20:22.582Z,90.60
2018-09-18T20:22:49.714Z,91.10
2018-09-18T20:25:16.831Z,90.50
2018-09-18T20:27:43.959Z,90.40
2018-09-18T20:30:11.086Z,90.10
2018-09-18T20:32:38.223Z,89.60
2018-09-18T20:35:05.377Z,90.00
2018-09-18T20:37:32.595Z,90.30
2018-09-18T20:39:59.723Z,90.00
2018-09-18T20:42:26.897Z,90.20
2018-09-18T20:44:54.023Z,90.10
2018-09-18T20:47:21.139Z,90.30
2018-09-18T20:49:48.259Z,90.40
2018-09-18T20:52:15.390Z,90.70
2018-09-18T20:54:42.588Z,89.60
2018-09-18T20:57:09.762Z,90.00
2018-09-18T20:59:36.894Z,90.10
2018-09-18T21:02:04.018Z,90.80
2018-09-18T21:04:31.114Z,91.10
2018-09-18T21:06:58.230Z,91.60
2018-09-18T21:09:25.390Z,91.30
2018-09-18T21:11:52.520Z,91.80
2018-09-18T21:14:19.637Z,92.60
2018-09-18T21:16:46.758Z,93.20
2018-09-18T21:19:13.866Z,94.10
2018-09-18T21:21:40.991Z,94.80
2018-09-18T21:24:08.131Z,95.30
2018-09-18T21:26:35.254Z,95.90
2018-09-18T21:29:02.373Z,96.50
2018-09-18T21:31:29.499Z,96.40
2018-09-18T21:33:56.646Z,95.80
2018-09-18T21:36:23.807Z,95.90
2018-09-18T21:38:50.924Z,95.90
2018-09-18T21:41:18.089Z,96.00
2018-09-18T21:43:45.165Z,96.70
2018-09-18T21:46:12.276Z,97.10
2018-09-18T21:48:39.474Z,97.30
2018-09-18T21:51:06.678Z,96.90
2018-09-18T21:53:33.810Z,96.10
2018-09-18T21:56:01.005Z,95.10
2018-09-18T21:58:28.154Z,94.00
2018-09-18T22:00:55.306Z,93.90
2018-09-18T22:03:22.454Z,93.50
2018-09-18T22:05:49.583Z,93.60
2018-09-18T22:08:16.691Z,94.00
2018-09-18T22:10:43.867Z,93.90
2018-09-18T22:13:11.129Z,94.40
2018-09-18T22:15:38.237Z,95.60
2018-09-18T22:18:05.363Z,95.40
2018-09-18T22:20:32.480Z,96.20
2018-09-18T22:22:59.639Z,96.60
2018-09-18T22:25:26.876Z,96.80
2018-09-18T22:27:54.003Z,97.30
2018-09-18T22:30:21.154Z,97.20
2018-09-18T22:32:48.267Z,97.50
2018-09-18T22:35:15.700Z,97.80
2018-09-18T22:37:42.845Z,97.20
2018-09-18T22:40:09.991Z,97.60
2018-09-18T22:42:37.153Z,97.30
2018-09-18T22:45:04.527Z,97.80
2018-09-18T22:47:31.675Z,98.60
2018-09-18T22:49:58.802Z,99.30
2018-09-18T22:52:25.986Z,99.90
2018-09-18T22:54:53.215Z,99.50
2018-09-18T22:57:20.341Z,96.20
2018-09-18T22:59:47.468Z,97.90
2018-09-18T23:02:14.619Z,97.40
2018-09-18T23:04:41.753Z,97.40
2018-09-18T23:07:08.854Z,97.30
2018-09-18T23:09:36.027Z,97.70
2018-09-18T23:12:03.205Z,97.70
2018-09-18T23:14:30.551Z,97.70
2018-09-18T23:16:57.686Z,93.80
2018-09-18T23:19:24.976Z,95.90
2018-09-18T23:21:52.114Z,96.50
2018-09-18T23:24:19.227Z,96.40
2018-09-18T23:26:46.344Z,97.40
2018-09-18T23:29:13.446Z,98.00
2018-09-18T23:31:40.548Z,97.60
2018-09-18T23:34:07.654Z,95.80
2018-09-18T23:36:34.894Z,94.10
2018-09-18T23:39:02.698Z,93.30
2018-09-18T23:41:30.047Z,94.40
2018-09-18T23:43:57.195Z,94.30
2018-09-18T23:46:24.458Z,93.90
2018-09-18T23:48:51.590Z,93.30
2018-09-18T23:51:18.717Z,91.80
2018-09-18T23:53:45.834Z,91.40
2018-09-18T23:56:12.940Z,91.00
2018-09-18T23:58:40.059Z,91.00
